sensor_id;sensor_type;location;lat;lon;timestamp;P1;durP1;ratioP1;P2;durP2;ratioP2
50165;SDS011;36071;48.140;11.516;2023-08-12T00:03:40;5.5;;;3.5;;
50165;SDS011;36071;48.140;11.516;2023-08-12T00:08:40;4.0;;;3.5;;
50165;SDS011;36071;48.140;11.516;2023-08-12T00:13:40;4.5;;;3.4;;
50165;SDS011;36071;48.140;11.516;2023-08-12T00:18:40;6.3;;;4.3;;
50165;SDS011;36071;48.140;11.516;2023-08-12T00:23:40;5.7;;;3.9;;
50165;SDS011;36071;48.140;11.516;2023-08-12T00:28:40;4.6;;;3.6;;
50165;SDS011;36071;48.140;11.516;2023-08-12T00:33:40;5.4;;;3.7;;
50165;SDS011;36071;48.140;11.516;2023-08-12T00:38:40;5.1;;;3.4;;
50165;SDS011;36071;48.140;11.516;2023-08-12T00:43:40;7.0;;;3.9;;
50165;SDS011;36071;48.140;11.516;2023-08-12T00:48:40;4.4;;;3.3;;
50165;SDS011;36071;48.140;11.516;2023-08-12T00:53:40;7.5;;;3.9;;
50165;SDS011;36071;48.140;11.516;2023-08-12T00:58:40;7.8;;;3.9;;
50165;SDS011;36071;48.140;11.516;2023-08-12T01:03:40;5.1;;;3.9;;
50165;SDS011;36071;48.140;11.516;2023-08-12T01:08:40;8.1;;;4.3;;
50165;SDS011;36071;48.140;11.516;2023-08-12T01:13:42;7.3;;;4.4;;
50165;SDS011;36071;48.140;11.516;2023-08-12T01:18:40;7.8;;;4.2;;
50165;SDS011;36071;48.140;11.516;2023-08-12T01:23:40;6.3;;;4.1;;
50165;SDS011;36071;48.140;11.516;2023-08-12T01:28:40;6.2;;;3.9;;
50165;SDS011;36071;48.140;11.516;2023-08-12T01:33:42;6.5;;;4.3;;
50165;SDS011;36071;48.140;11.516;2023-08-12T01:38:40;5.0;;;4.1;;
50165;SDS011;36071;48.140;11.516;2023-08-12T01:43:40;8.0;;;4.2;;
50165;SDS011;36071;48.140;11.516;2023-08-12T01:48:40;6.8;;;4.1;;
50165;SDS011;36071;48.140;11.516;2023-08-12T01:53:40;5.5;;;4.1;;
50165;SDS011;36071;48.140;11.516;2023-08-12T01:58:40;7.4;;;4.6;;
50165;SDS011;36071;48.140;11.516;2023-08-12T02:03:40;6.0;;;4.5;;
50165;SDS011;36071;48.140;11.516;2023-08-12T02:08:41;6.6;;;4.3;;
50165;SDS011;36071;48.140;11.516;2023-08-12T02:13:40;7.9;;;4.1;;
50165;SDS011;36071;48.140;11.516;2023-08-12T02:18:40;6.2;;;4.6;;
50165;SDS011;36071;48.140;11.516;2023-08-12T02:23:40;6.6;;;4.3;;
50165;SDS011;36071;48.140;11.516;2023-08-12T02:28:40;6.3;;;4.3;;
50165;SDS011;36071;48.140;11.516;2023-08-12T02:33:40;8.8;;;4.3;;
50165;SDS011;36071;48.140;11.516;2023-08-12T02:38:40;6.5;;;4.1;;
50165;SDS011;36071;48.140;11.516;2023-08-12T02:43:40;6.1;;;4.3;;
50165;SDS011;36071;48.140;11.516;2023-08-12T02:48:40;6.8;;;4.3;;
50165;SDS011;36071;48.140;11.516;2023-08-12T02:53:40;5.8;;;4.1;;
50165;SDS011;36071;48.140;11.516;2023-08-12T02:58:40;5.9;;;4.4;;
50165;SDS011;36071;48.140;11.516;2023-08-12T03:03:40;7.9;;;4.4;;
50165;SDS011;36071;48.140;11.516;2023-08-12T03:08:40;6.4;;;4.4;;
50165;SDS011;36071;48.140;11.516;2023-08-12T03:13:40;5.6;;;4.4;;
50165;SDS011;36071;48.140;11.516;2023-08-12T03:18:40;6.8;;;4.5;;
50165;SDS011;36071;48.140;11.516;2023-08-12T03:23:40;6.0;;;4.0;;
50165;SDS011;36071;48.140;11.516;2023-08-12T03:28:40;6.5;;;4.1;;
50165;SDS011;36071;48.140;11.516;2023-08-12T03:33:40;7.7;;;4.2;;
50165;SDS011;36071;48.140;11.516;2023-08-12T03:38:40;7.5;;;5.0;;
50165;SDS011;36071;48.140;11.516;2023-08-12T03:43:40;6.8;;;4.6;;
50165;SDS011;36071;48.140;11.516;2023-08-12T03:48:40;5.3;;;4.3;;
50165;SDS011;36071;48.140;11.516;2023-08-12T03:53:40;7.7;;;4.1;;
50165;SDS011;36071;48.140;11.516;2023-08-12T03:58:40;5.6;;;4.2;;
50165;SDS011;36071;48.140;11.516;2023-08-12T04:03:40;5.7;;;4.4;;
50165;SDS011;36071;48.140;11.516;2023-08-12T04:08:40;6.1;;;4.2;;
50165;SDS011;36071;48.140;11.516;2023-08-12T04:13:41;9.0;;;4.4;;
50165;SDS011;36071;48.140;11.516;2023-08-12T04:18:40;6.8;;;4.3;;
50165;SDS011;36071;48.140;11.516;2023-08-12T04:23:40;7.2;;;4.2;;
50165;SDS011;36071;48.140;11.516;2023-08-12T04:28:40;5.6;;;3.9;;
50165;SDS011;36071;48.140;11.516;2023-08-12T04:33:40;5.8;;;4.2;;
50165;SDS011;36071;48.140;11.516;2023-08-12T04:38:40;5.2;;;3.8;;
50165;SDS011;36071;48.140;11.516;2023-08-12T04:43:40;4.6;;;3.8;;
50165;SDS011;36071;48.140;11.516;2023-08-12T04:48:40;5.1;;;3.9;;
50165;SDS011;36071;48.140;11.516;2023-08-12T04:53:40;6.1;;;3.8;;
50165;SDS011;36071;48.140;11.516;2023-08-12T04:58:40;5.5;;;3.6;;
50165;SDS011;36071;48.140;11.516;2023-08-12T05:03:40;8.1;;;3.7;;
50165;SDS011;36071;48.140;11.516;2023-08-12T05:08:40;6.0;;;3.6;;
50165;SDS011;36071;48.140;11.516;2023-08-12T05:13:40;6.4;;;3.8;;
50165;SDS011;36071;48.140;11.516;2023-08-12T05:18:40;6.7;;;3.8;;
50165;SDS011;36071;48.140;11.516;2023-08-12T05:23:40;5.0;;;3.6;;
50165;SDS011;36071;48.140;11.516;2023-08-12T05:28:40;5.1;;;3.4;;
50165;SDS011;36071;48.140;11.516;2023-08-12T05:33:40;5.1;;;3.7;;
50165;SDS011;36071;48.140;11.516;2023-08-12T05:38:40;6.0;;;3.9;;
50165;SDS011;36071;48.140;11.516;2023-08-12T05:43:40;8.2;;;3.9;;
50165;SDS011;36071;48.140;11.516;2023-08-12T05:48:41;6.0;;;3.7;;
50165;SDS011;36071;48.140;11.516;2023-08-12T05:53:40;4.7;;;3.7;;
50165;SDS011;36071;48.140;11.516;2023-08-12T05:58:40;4.2;;;3.6;;
50165;SDS011;36071;48.140;11.516;2023-08-12T06:03:40;7.6;;;3.7;;
50165;SDS011;36071;48.140;11.516;2023-08-12T06:08:40;7.4;;;3.9;;
50165;SDS011;36071;48.140;11.516;2023-08-12T06:13:40;6.8;;;3.9;;
50165;SDS011;36071;48.140;11.516;2023-08-12T06:18:40;5.3;;;3.4;;
50165;SDS011;36071;48.140;11.516;2023-08-12T06:23:41;4.6;;;3.5;;
50165;SDS011;36071;48.140;11.516;2023-08-12T06:28:40;4.1;;;3.3;;
50165;SDS011;36071;48.140;11.516;2023-08-12T06:33:40;4.4;;;3.6;;
50165;SDS011;36071;48.140;11.516;2023-08-12T06:38:40;5.6;;;3.2;;
50165;SDS011;36071;48.140;11.516;2023-08-12T06:43:40;5.8;;;3.2;;
50165;SDS011;36071;48.140;11.516;2023-08-12T06:48:40;4.4;;;3.4;;
50165;SDS011;36071;48.140;11.516;2023-08-12T06:53:41;5.0;;;3.2;;
50165;SDS011;36071;48.140;11.516;2023-08-12T06:58:40;6.4;;;3.4;;
50165;SDS011;36071;48.140;11.516;2023-08-12T07:03:40;4.2;;;3.3;;
50165;SDS011;36071;48.140;11.516;2023-08-12T07:08:40;7.2;;;3.9;;
50165;SDS011;36071;48.140;11.516;2023-08-12T07:13:40;10.9;;;6.5;;
50165;SDS011;36071;48.140;11.516;2023-08-12T07:18:45;6.6;;;3.6;;
50165;SDS011;36071;48.140;11.516;2023-08-12T07:23:40;4.9;;;3.4;;
50165;SDS011;36071;48.140;11.516;2023-08-12T07:28:40;12.7;;;9.6;;
50165;SDS011;36071;48.140;11.516;2023-08-12T07:33:40;6.6;;;3.9;;
50165;SDS011;36071;48.140;11.516;2023-08-12T07:38:40;6.1;;;3.4;;
50165;SDS011;36071;48.140;11.516;2023-08-12T07:43:40;6.2;;;3.4;;
50165;SDS011;36071;48.140;11.516;2023-08-12T07:48:40;3.8;;;2.9;;
50165;SDS011;36071;48.140;11.516;2023-08-12T07:53:40;3.9;;;3.0;;
50165;SDS011;36071;48.140;11.516;2023-08-12T07:58:40;4.4;;;3.0;;
50165;SDS011;36071;48.140;11.516;2023-08-12T08:03:40;6.3;;;3.0;;
50165;SDS011;36071;48.140;11.516;2023-08-12T08:08:40;3.2;;;2.9;;
50165;SDS011;36071;48.140;11.516;2023-08-12T08:13:40;3.9;;;2.8;;
50165;SDS011;36071;48.140;11.516;2023-08-12T08:18:40;4.1;;;2.7;;
50165;SDS011;36071;48.140;11.516;2023-08-12T08:23:40;4.8;;;2.9;;
50165;SDS011;36071;48.140;11.516;2023-08-12T08:28:40;4.2;;;2.9;;
50165;SDS011;36071;48.140;11.516;2023-08-12T08:33:40;3.1;;;2.8;;
50165;SDS011;36071;48.140;11.516;2023-08-12T08:43:40;3.9;;;3.1;;
50165;SDS011;36071;48.140;11.516;2023-08-12T08:48:40;4.7;;;2.7;;
50165;SDS011;36071;48.140;11.516;2023-08-12T08:53:40;3.1;;;2.8;;
50165;SDS011;36071;48.140;11.516;2023-08-12T08:58:40;3.5;;;2.8;;
50165;SDS011;36071;48.140;11.516;2023-08-12T09:03:40;4.5;;;2.9;;
50165;SDS011;36071;48.140;11.516;2023-08-12T09:08:41;4.0;;;3.2;;
50165;SDS011;36071;48.140;11.516;2023-08-12T09:13:40;4.5;;;3.0;;
50165;SDS011;36071;48.140;11.516;2023-08-12T09:18:41;14.1;;;10.9;;
50165;SDS011;36071;48.140;11.516;2023-08-12T09:23:40;8.1;;;5.3;;
50165;SDS011;36071;48.140;11.516;2023-08-12T09:28:42;6.0;;;3.3;;
50165;SDS011;36071;48.140;11.516;2023-08-12T09:33:40;4.0;;;3.1;;
50165;SDS011;36071;48.140;11.516;2023-08-12T09:38:40;11.2;;;6.2;;
50165;SDS011;36071;48.140;11.516;2023-08-12T09:43:40;5.0;;;3.9;;
50165;SDS011;36071;48.140;11.516;2023-08-12T09:48:40;4.0;;;3.3;;
50165;SDS011;36071;48.140;11.516;2023-08-12T09:53:40;7.4;;;3.2;;
50165;SDS011;36071;48.140;11.516;2023-08-12T09:58:40;4.1;;;3.2;;
50165;SDS011;36071;48.140;11.516;2023-08-12T10:03:40;5.6;;;3.3;;
50165;SDS011;36071;48.140;11.516;2023-08-12T10:08:40;5.4;;;4.7;;
50165;SDS011;36071;48.140;11.516;2023-08-12T10:13:40;5.0;;;3.4;;
50165;SDS011;36071;48.140;11.516;2023-08-12T10:18:40;5.4;;;4.8;;
50165;SDS011;36071;48.140;11.516;2023-08-12T10:23:40;4.7;;;3.5;;
50165;SDS011;36071;48.140;11.516;2023-08-12T10:28:40;5.5;;;3.8;;
50165;SDS011;36071;48.140;11.516;2023-08-12T10:33:40;4.4;;;2.9;;
50165;SDS011;36071;48.140;11.516;2023-08-12T10:38:40;6.5;;;3.7;;
50165;SDS011;36071;48.140;11.516;2023-08-12T10:43:48;3.9;;;2.9;;
50165;SDS011;36071;48.140;11.516;2023-08-12T10:48:40;3.9;;;3.3;;
50165;SDS011;36071;48.140;11.516;2023-08-12T10:53:40;5.2;;;3.1;;
50165;SDS011;36071;48.140;11.516;2023-08-12T10:58:40;5.3;;;3.2;;
50165;SDS011;36071;48.140;11.516;2023-08-12T11:03:42;3.6;;;2.7;;
50165;SDS011;36071;48.140;11.516;2023-08-12T11:08:45;3.1;;;2.5;;
50165;SDS011;36071;48.140;11.516;2023-08-12T11:13:46;3.6;;;2.4;;
50165;SDS011;36071;48.140;11.516;2023-08-12T11:18:40;7.4;;;2.6;;
50165;SDS011;36071;48.140;11.516;2023-08-12T11:23:41;5.5;;;2.6;;
50165;SDS011;36071;48.140;11.516;2023-08-12T11:28:40;2.8;;;2.5;;
50165;SDS011;36071;48.140;11.516;2023-08-12T11:33:40;6.1;;;2.5;;
50165;SDS011;36071;48.140;11.516;2023-08-12T11:38:40;3.3;;;2.3;;
50165;SDS011;36071;48.140;11.516;2023-08-12T11:43:40;5.2;;;3.1;;
50165;SDS011;36071;48.140;11.516;2023-08-12T11:48:40;3.2;;;2.5;;
50165;SDS011;36071;48.140;11.516;2023-08-12T11:53:40;3.4;;;2.5;;
50165;SDS011;36071;48.140;11.516;2023-08-12T11:58:40;4.5;;;2.5;;
50165;SDS011;36071;48.140;11.516;2023-08-12T12:03:40;2.5;;;2.0;;
50165;SDS011;36071;48.140;11.516;2023-08-12T12:08:40;4.7;;;2.3;;
50165;SDS011;36071;48.140;11.516;2023-08-12T12:13:40;3.3;;;2.4;;
50165;SDS011;36071;48.140;11.516;2023-08-12T12:18:40;3.8;;;2.4;;
50165;SDS011;36071;48.140;11.516;2023-08-12T12:23:40;6.3;;;2.7;;
50165;SDS011;36071;48.140;11.516;2023-08-12T12:28:40;5.4;;;2.8;;
50165;SDS011;36071;48.140;11.516;2023-08-12T12:33:40;4.8;;;2.9;;
50165;SDS011;36071;48.140;11.516;2023-08-12T12:38:40;4.7;;;2.6;;
50165;SDS011;36071;48.140;11.516;2023-08-12T12:43:40;6.8;;;3.0;;
50165;SDS011;36071;48.140;11.516;2023-08-12T12:48:40;3.9;;;2.7;;
50165;SDS011;36071;48.140;11.516;2023-08-12T12:53:40;4.2;;;2.6;;
50165;SDS011;36071;48.140;11.516;2023-08-12T12:58:40;4.6;;;2.5;;
50165;SDS011;36071;48.140;11.516;2023-08-12T13:03:43;3.5;;;3.1;;
50165;SDS011;36071;48.140;11.516;2023-08-12T13:08:42;8.4;;;5.0;;
50165;SDS011;36071;48.140;11.516;2023-08-12T13:13:40;13.2;;;8.8;;
50165;SDS011;36071;48.140;11.516;2023-08-12T13:18:40;9.5;;;5.6;;
50165;SDS011;36071;48.140;11.516;2023-08-12T13:23:40;5.4;;;3.5;;
50165;SDS011;36071;48.140;11.516;2023-08-12T13:28:40;5.3;;;2.6;;
50165;SDS011;36071;48.140;11.516;2023-08-12T13:33:40;3.7;;;3.0;;
50165;SDS011;36071;48.140;11.516;2023-08-12T13:38:40;2.9;;;2.2;;
50165;SDS011;36071;48.140;11.516;2023-08-12T13:43:40;5.0;;;2.6;;
50165;SDS011;36071;48.140;11.516;2023-08-12T13:48:40;4.6;;;2.5;;
50165;SDS011;36071;48.140;11.516;2023-08-12T13:53:40;4.5;;;2.9;;
50165;SDS011;36071;48.140;11.516;2023-08-12T13:58:40;3.5;;;2.9;;
50165;SDS011;36071;48.140;11.516;2023-08-12T14:03:40;4.7;;;3.0;;
50165;SDS011;36071;48.140;11.516;2023-08-12T14:08:40;6.1;;;2.6;;
50165;SDS011;36071;48.140;11.516;2023-08-12T14:13:40;5.1;;;2.9;;
50165;SDS011;36071;48.140;11.516;2023-08-12T14:18:40;3.6;;;2.6;;
50165;SDS011;36071;48.140;11.516;2023-08-12T14:23:40;3.7;;;2.6;;
50165;SDS011;36071;48.140;11.516;2023-08-12T14:28:40;5.0;;;2.9;;
50165;SDS011;36071;48.140;11.516;2023-08-12T14:33:40;6.0;;;2.6;;
50165;SDS011;36071;48.140;11.516;2023-08-12T14:38:40;5.2;;;2.5;;
50165;SDS011;36071;48.140;11.516;2023-08-12T14:43:40;4.5;;;2.7;;
50165;SDS011;36071;48.140;11.516;2023-08-12T14:48:40;6.4;;;3.0;;
50165;SDS011;36071;48.140;11.516;2023-08-12T14:53:40;5.3;;;2.9;;
50165;SDS011;36071;48.140;11.516;2023-08-12T14:58:40;7.6;;;3.0;;
50165;SDS011;36071;48.140;11.516;2023-08-12T15:03:41;14.2;;;8.7;;
50165;SDS011;36071;48.140;11.516;2023-08-12T15:08:41;6.9;;;2.8;;
50165;SDS011;36071;48.140;11.516;2023-08-12T15:13:40;7.9;;;2.4;;
50165;SDS011;36071;48.140;11.516;2023-08-12T15:18:40;3.8;;;2.4;;
50165;SDS011;36071;48.140;11.516;2023-08-12T15:23:40;7.7;;;2.9;;
50165;SDS011;36071;48.140;11.516;2023-08-12T15:28:41;5.2;;;2.6;;
50165;SDS011;36071;48.140;11.516;2023-08-12T15:33:41;5.4;;;2.7;;
50165;SDS011;36071;48.140;11.516;2023-08-12T15:38:40;6.6;;;2.4;;
50165;SDS011;36071;48.140;11.516;2023-08-12T15:43:40;10.3;;;3.3;;
50165;SDS011;36071;48.140;11.516;2023-08-12T15:48:40;14.1;;;6.4;;
50165;SDS011;36071;48.140;11.516;2023-08-12T15:53:40;14.1;;;5.6;;
50165;SDS011;36071;48.140;11.516;2023-08-12T15:58:40;8.7;;;3.4;;
50165;SDS011;36071;48.140;11.516;2023-08-12T16:03:40;9.0;;;3.2;;
50165;SDS011;36071;48.140;11.516;2023-08-12T16:08:40;5.8;;;3.1;;
50165;SDS011;36071;48.140;11.516;2023-08-12T16:13:42;7.9;;;2.8;;
50165;SDS011;36071;48.140;11.516;2023-08-12T16:18:41;5.8;;;2.9;;
50165;SDS011;36071;48.140;11.516;2023-08-12T16:23:41;6.3;;;2.9;;
50165;SDS011;36071;48.140;11.516;2023-08-12T16:28:41;7.7;;;3.5;;
50165;SDS011;36071;48.140;11.516;2023-08-12T16:33:41;6.7;;;3.1;;
50165;SDS011;36071;48.140;11.516;2023-08-12T16:38:41;7.0;;;3.3;;
50165;SDS011;36071;48.140;11.516;2023-08-12T16:43:41;5.1;;;3.4;;
50165;SDS011;36071;48.140;11.516;2023-08-12T16:48:41;10.1;;;3.3;;
50165;SDS011;36071;48.140;11.516;2023-08-12T16:53:41;8.2;;;3.5;;
50165;SDS011;36071;48.140;11.516;2023-08-12T16:58:41;7.5;;;2.8;;
50165;SDS011;36071;48.140;11.516;2023-08-12T17:03:41;5.9;;;2.8;;
50165;SDS011;36071;48.140;11.516;2023-08-12T17:08:41;7.7;;;3.0;;
50165;SDS011;36071;48.140;11.516;2023-08-12T17:13:41;6.0;;;3.0;;
50165;SDS011;36071;48.140;11.516;2023-08-12T17:18:41;6.2;;;2.9;;
50165;SDS011;36071;48.140;11.516;2023-08-12T17:23:41;9.2;;;3.0;;
50165;SDS011;36071;48.140;11.516;2023-08-12T17:28:41;6.4;;;3.4;;
50165;SDS011;36071;48.140;11.516;2023-08-12T17:33:40;16.6;;;4.0;;
50165;SDS011;36071;48.140;11.516;2023-08-12T17:38:40;13.8;;;3.8;;
50165;SDS011;36071;48.140;11.516;2023-08-12T17:43:40;11.0;;;4.2;;
50165;SDS011;36071;48.140;11.516;2023-08-12T17:48:40;8.1;;;3.6;;
50165;SDS011;36071;48.140;11.516;2023-08-12T17:53:40;9.9;;;3.7;;
50165;SDS011;36071;48.140;11.516;2023-08-12T17:58:41;7.6;;;3.2;;
50165;SDS011;36071;48.140;11.516;2023-08-12T18:03:40;6.3;;;2.9;;
50165;SDS011;36071;48.140;11.516;2023-08-12T18:08:40;5.9;;;3.2;;
50165;SDS011;36071;48.140;11.516;2023-08-12T18:13:45;7.4;;;3.4;;
50165;SDS011;36071;48.140;11.516;2023-08-12T18:18:40;8.8;;;4.5;;
50165;SDS011;36071;48.140;11.516;2023-08-12T18:23:40;7.8;;;3.9;;
50165;SDS011;36071;48.140;11.516;2023-08-12T18:28:40;8.9;;;3.8;;
50165;SDS011;36071;48.140;11.516;2023-08-12T18:33:40;8.8;;;3.9;;
50165;SDS011;36071;48.140;11.516;2023-08-12T18:38:40;10.1;;;3.9;;
50165;SDS011;36071;48.140;11.516;2023-08-12T18:43:40;6.4;;;3.9;;
50165;SDS011;36071;48.140;11.516;2023-08-12T18:48:40;7.1;;;4.0;;
50165;SDS011;36071;48.140;11.516;2023-08-12T19:03:41;8.4;;;5.6;;
50165;SDS011;36071;48.140;11.516;2023-08-12T19:08:40;9.6;;;5.7;;
50165;SDS011;36071;48.140;11.516;2023-08-12T19:13:40;11.4;;;5.6;;
50165;SDS011;36071;48.140;11.516;2023-08-12T19:18:40;10.9;;;5.3;;
50165;SDS011;36071;48.140;11.516;2023-08-12T19:23:40;9.8;;;5.0;;
50165;SDS011;36071;48.140;11.516;2023-08-12T19:28:40;9.8;;;4.3;;
50165;SDS011;36071;48.140;11.516;2023-08-12T19:33:41;7.4;;;4.7;;
50165;SDS011;36071;48.140;11.516;2023-08-12T19:38:40;14.6;;;7.5;;
50165;SDS011;36071;48.140;11.516;2023-08-12T19:43:40;12.3;;;5.7;;
50165;SDS011;36071;48.140;11.516;2023-08-12T19:48:40;9.3;;;5.1;;
50165;SDS011;36071;48.140;11.516;2023-08-12T19:53:40;9.1;;;4.9;;
50165;SDS011;36071;48.140;11.516;2023-08-12T19:58:40;8.9;;;4.4;;
50165;SDS011;36071;48.140;11.516;2023-08-12T20:03:40;8.1;;;4.4;;
50165;SDS011;36071;48.140;11.516;2023-08-12T20:08:40;8.6;;;4.0;;
50165;SDS011;36071;48.140;11.516;2023-08-12T20:13:40;9.7;;;3.9;;
50165;SDS011;36071;48.140;11.516;2023-08-12T20:18:40;7.3;;;3.8;;
50165;SDS011;36071;48.140;11.516;2023-08-12T20:23:40;9.6;;;3.7;;
50165;SDS011;36071;48.140;11.516;2023-08-12T20:28:42;7.1;;;3.7;;
50165;SDS011;36071;48.140;11.516;2023-08-12T20:33:41;7.7;;;4.2;;
50165;SDS011;36071;48.140;11.516;2023-08-12T20:38:40;21.3;;;12.3;;
50165;SDS011;36071;48.140;11.516;2023-08-12T20:43:41;13.5;;;7.1;;
50165;SDS011;36071;48.140;11.516;2023-08-12T20:48:40;11.1;;;7.0;;
50165;SDS011;36071;48.140;11.516;2023-08-12T20:53:40;12.5;;;6.3;;
50165;SDS011;36071;48.140;11.516;2023-08-12T20:58:40;8.0;;;5.6;;
50165;SDS011;36071;48.140;11.516;2023-08-12T21:03:41;8.9;;;5.2;;
50165;SDS011;36071;48.140;11.516;2023-08-12T21:08:40;7.7;;;4.5;;
50165;SDS011;36071;48.140;11.516;2023-08-12T21:13:40;9.4;;;4.5;;
50165;SDS011;36071;48.140;11.516;2023-08-12T21:18:41;8.7;;;4.8;;
50165;SDS011;36071;48.140;11.516;2023-08-12T21:23:43;5.6;;;4.1;;
50165;SDS011;36071;48.140;11.516;2023-08-12T21:28:40;7.9;;;4.5;;
50165;SDS011;36071;48.140;11.516;2023-08-12T21:33:41;8.7;;;4.1;;
50165;SDS011;36071;48.140;11.516;2023-08-12T21:38:41;6.3;;;4.5;;
50165;SDS011;36071;48.140;11.516;2023-08-12T21:43:40;7.1;;;4.5;;
50165;SDS011;36071;48.140;11.516;2023-08-12T21:48:41;5.8;;;4.3;;
50165;SDS011;36071;48.140;11.516;2023-08-12T21:53:40;7.0;;;4.4;;
50165;SDS011;36071;48.140;11.516;2023-08-12T21:58:40;8.3;;;4.6;;
50165;SDS011;36071;48.140;11.516;2023-08-12T22:03:40;9.6;;;4.8;;
50165;SDS011;36071;48.140;11.516;2023-08-12T22:08:41;30.9;;;20.7;;
50165;SDS011;36071;48.140;11.516;2023-08-12T22:13:40;52.5;;;36.1;;
50165;SDS011;36071;48.140;11.516;2023-08-12T22:18:40;14.6;;;8.6;;
50165;SDS011;36071;48.140;11.516;2023-08-12T22:23:40;14.5;;;7.2;;
50165;SDS011;36071;48.140;11.516;2023-08-12T22:28:40;28.3;;;20.3;;
50165;SDS011;36071;48.140;11.516;2023-08-12T22:33:40;38.0;;;23.8;;
50165;SDS011;36071;48.140;11.516;2023-08-12T22:38:42;24.5;;;15.2;;
50165;SDS011;36071;48.140;11.516;2023-08-12T22:43:40;10.8;;;6.4;;
50165;SDS011;36071;48.140;11.516;2023-08-12T22:48:40;9.2;;;5.3;;
50165;SDS011;36071;48.140;11.516;2023-08-12T22:53:41;9.8;;;4.9;;
50165;SDS011;36071;48.140;11.516;2023-08-12T22:58:41;9.7;;;5.9;;
50165;SDS011;36071;48.140;11.516;2023-08-12T23:03:40;10.1;;;5.3;;
50165;SDS011;36071;48.140;11.516;2023-08-12T23:08:40;7.4;;;4.9;;
50165;SDS011;36071;48.140;11.516;2023-08-12T23:13:41;11.3;;;5.4;;
50165;SDS011;36071;48.140;11.516;2023-08-12T23:23:40;13.0;;;5.7;;
50165;SDS011;36071;48.140;11.516;2023-08-12T23:28:41;11.6;;;5.6;;
50165;SDS011;36071;48.140;11.516;2023-08-12T23:33:40;11.0;;;5.6;;
50165;SDS011;36071;48.140;11.516;2023-08-12T23:38:41;9.5;;;5.8;;
50165;SDS011;36071;48.140;11.516;2023-08-12T23:43:41;9.5;;;5.7;;
50165;SDS011;36071;48.140;11.516;2023-08-12T23:48:41;9.7;;;5.5;;
50165;SDS011;36071;48.140;11.516;2023-08-12T23:53:40;9.9;;;5.3;;
50165;SDS011;36071;48.140;11.516;2023-08-12T23:58:41;11.2;;;5.6;;
